sensor_id;sensor_type;location;lat;lon;timestamp;pressure;altitude;pressure_sealevel;temperature;humidity
39443;BME280;25147;52.142;9.960;2023-04-10T00:01:17;101465.88;;;3.33;100.00
39443;BME280;25147;52.142;9.960;2023-04-10T00:03:45;101466.66;;;3.31;100.00
39443;BME280;25147;52.142;9.960;2023-04-10T00:06:15;101351.53;;;2.60;100.00
39443;BME280;25147;52.142;9.960;2023-04-10T00:08:43;101307.50;;;2.02;100.00
39443;BME280;25147;52.142;9.960;2023-04-10T00:11:10;100967.91;;;0.21;100.00
39443;BME280;25147;52.142;9.960;2023-04-10T00:13:38;101163.00;;;1.26;100.00
39443;BME280;25147;52.142;9.960;2023-04-10T00:16:06;100949.25;;;0.03;100.00
39443;BME280;25147;52.142;9.960;2023-04-10T00:18:33;101474.78;;;3.14;100.00
39443;BME280;25147;52.142;9.960;2023-04-10T00:21:01;101518.66;;;3.11;100.00
39443;BME280;25147;52.142;9.960;2023-04-10T00:23:30;100969.34;;;0.13;100.00
39443;BME280;25147;52.142;9.960;2023-04-10T00:25:59;101318.28;;;1.90;100.00
39443;BME280;25147;52.142;9.960;2023-04-10T00:28:27;101299.75;;;2.02;100.00
39443;BME280;25147;52.142;9.960;2023-04-10T00:30:54;100842.31;;;-0.63;100.00
39443;BME280;25147;52.142;9.960;2023-04-10T00:33:21;100980.63;;;0.16;100.00
39443;BME280;25147;52.142;9.960;2023-04-10T00:35:48;100981.78;;;0.01;100.00
39443;BME280;25147;52.142;9.960;2023-04-10T00:38:16;101052.19;;;0.51;100.00
39443;BME280;25147;52.142;9.960;2023-04-10T00:40:44;101466.84;;;3.08;100.00
39443;BME280;25147;52.142;9.960;2023-04-10T00:43:11;100959.06;;;0.13;100.00
39443;BME280;25147;52.142;9.960;2023-04-10T00:45:39;101283.41;;;2.03;100.00
39443;BME280;25147;52.142;9.960;2023-04-10T00:48:07;101323.00;;;2.02;100.00
39443;BME280;25147;52.142;9.960;2023-04-10T00:50:34;101125.50;;;1.09;100.00
39443;BME280;25147;52.142;9.960;2023-04-10T00:53:01;100943.19;;;0.01;100.00
39443;BME280;25147;52.142;9.960;2023-04-10T00:55:29;100966.56;;;0.07;100.00
39443;BME280;25147;52.142;9.960;2023-04-10T00:57:59;101503.78;;;3.04;100.00
39443;BME280;25147;52.142;9.960;2023-04-10T01:00:26;101397.72;;;2.75;100.00
39443;BME280;25147;52.142;9.960;2023-04-10T01:02:54;101276.72;;;1.82;100.00
39443;BME280;25147;52.142;9.960;2023-04-10T01:05:22;101452.00;;;3.03;100.00
39443;BME280;25147;52.142;9.960;2023-04-10T01:08:01;101298.63;;;1.95;100.00
39443;BME280;25147;52.142;9.960;2023-04-10T01:10:37;100936.16;;;-0.04;100.00
39443;BME280;25147;52.142;9.960;2023-04-10T01:13:20;101322.84;;;2.24;100.00
39443;BME280;25147;52.142;9.960;2023-04-10T01:15:57;101004.09;;;0.26;100.00
39443;BME280;25147;52.142;9.960;2023-04-10T01:18:36;100939.28;;;-0.12;100.00
39443;BME280;25147;52.142;9.960;2023-04-10T01:21:11;101125.53;;;1.10;100.00
39443;BME280;25147;52.142;9.960;2023-04-10T01:23:55;100920.13;;;-0.21;100.00
39443;BME280;25147;52.142;9.960;2023-04-10T01:26:45;100904.47;;;-0.27;100.00
39443;BME280;25147;52.142;9.960;2023-04-10T01:29:21;101461.28;;;2.96;100.00
39443;BME280;25147;52.142;9.960;2023-04-10T01:31:52;100957.56;;;-0.05;100.00
39443;BME280;25147;52.142;9.960;2023-04-10T01:34:31;100936.72;;;-0.36;100.00
39443;BME280;25147;52.142;9.960;2023-04-10T01:37:03;101455.78;;;2.85;100.00
39443;BME280;25147;52.142;9.960;2023-04-10T01:39:34;101205.47;;;1.36;100.00
39443;BME280;25147;52.142;9.960;2023-04-10T01:42:04;100984.50;;;-0.19;100.00
39443;BME280;25147;52.142;9.960;2023-04-10T01:44:40;101018.63;;;0.24;100.00
39443;BME280;25147;52.142;9.960;2023-04-10T01:47:13;101503.72;;;2.75;100.00
39443;BME280;25147;52.142;9.960;2023-04-10T01:49:44;100815.56;;;-1.15;100.00
39443;BME280;25147;52.142;9.960;2023-04-10T01:52:13;101455.31;;;2.71;100.00
39443;BME280;25147;52.142;9.960;2023-04-10T01:54:41;100940.38;;;-0.30;100.00
39443;BME280;25147;52.142;9.960;2023-04-10T01:57:13;100861.88;;;-0.91;100.00
39443;BME280;25147;52.142;9.960;2023-04-10T01:59:46;101452.81;;;2.74;100.00
39443;BME280;25147;52.142;9.960;2023-04-10T02:02:14;100928.06;;;-0.38;100.00
39443;BME280;25147;52.142;9.960;2023-04-10T02:04:41;100934.19;;;-0.35;100.00
39443;BME280;25147;52.142;9.960;2023-04-10T02:07:15;100909.03;;;-0.66;100.00
39443;BME280;25147;52.142;9.960;2023-04-10T02:09:52;100827.84;;;-1.08;100.00
39443;BME280;25147;52.142;9.960;2023-04-10T02:12:28;100887.13;;;-0.56;100.00
39443;BME280;25147;52.142;9.960;2023-04-10T02:14:59;100972.47;;;-0.20;100.00
39443;BME280;25147;52.142;9.960;2023-04-10T02:17:30;101456.91;;;2.68;100.00
39443;BME280;25147;52.142;9.960;2023-04-10T02:20:02;100907.22;;;-0.46;100.00
39443;BME280;25147;52.142;9.960;2023-04-10T02:22:32;100932.38;;;-0.37;100.00
39443;BME280;25147;52.142;9.960;2023-04-10T02:25:05;100959.84;;;-0.12;100.00
39443;BME280;25147;52.142;9.960;2023-04-10T02:27:36;101144.00;;;0.97;100.00
39443;BME280;25147;52.142;9.960;2023-04-10T02:30:07;100972.13;;;-0.05;100.00
39443;BME280;25147;52.142;9.960;2023-04-10T02:32:35;100928.06;;;-0.38;100.00
39443;BME280;25147;52.142;9.960;2023-04-10T02:35:02;100938.53;;;-0.34;100.00
39443;BME280;25147;52.142;9.960;2023-04-10T02:37:30;101403.69;;;2.21;100.00
39443;BME280;25147;52.142;9.960;2023-04-10T02:39:59;101429.09;;;2.60;100.00
39443;BME280;25147;52.142;9.960;2023-04-10T02:42:27;101222.28;;;1.49;100.00
39443;BME280;25147;52.142;9.960;2023-04-10T02:44:55;100908.66;;;-0.30;100.00
39443;BME280;25147;52.142;9.960;2023-04-10T02:47:24;100892.03;;;-0.63;100.00
39443;BME280;25147;52.142;9.960;2023-04-10T02:49:52;100868.13;;;-0.60;100.00
39443;BME280;25147;52.142;9.960;2023-04-10T02:52:19;100929.31;;;-0.27;100.00
39443;BME280;25147;52.142;9.960;2023-04-10T02:54:46;101406.00;;;2.65;100.00
39443;BME280;25147;52.142;9.960;2023-04-10T02:57:15;100907.09;;;-0.49;100.00
39443;BME280;25147;52.142;9.960;2023-04-10T02:59:42;100853.28;;;-0.67;100.00
39443;BME280;25147;52.142;9.960;2023-04-10T03:02:10;100919.19;;;-0.23;100.00
39443;BME280;25147;52.142;9.960;2023-04-10T03:04:39;101414.81;;;2.72;100.00
39443;BME280;25147;52.142;9.960;2023-04-10T03:07:07;100892.16;;;-0.35;100.00
39443;BME280;25147;52.142;9.960;2023-04-10T03:09:36;100893.38;;;-0.26;100.00
39443;BME280;25147;52.142;9.960;2023-04-10T03:12:05;100856.16;;;-0.59;100.00
39443;BME280;25147;52.142;9.960;2023-04-10T03:14:35;101213.16;;;1.60;100.00
39443;BME280;25147;52.142;9.960;2023-04-10T03:17:05;100862.28;;;-0.32;100.00
39443;BME280;25147;52.142;9.960;2023-04-10T03:19:32;100885.66;;;-0.26;100.00
39443;BME280;25147;52.142;9.960;2023-04-10T03:22:02;101095.63;;;0.90;100.00
39443;BME280;25147;52.142;9.960;2023-04-10T03:24:29;100875.56;;;-0.19;100.00
39443;BME280;25147;52.142;9.960;2023-04-10T03:26:58;100878.78;;;-0.25;100.00
39443;BME280;25147;52.142;9.960;2023-04-10T03:29:26;101192.91;;;1.72;100.00
39443;BME280;25147;52.142;9.960;2023-04-10T03:31:53;101172.03;;;1.65;100.00
39443;BME280;25147;52.142;9.960;2023-04-10T03:34:24;100869.06;;;-0.08;100.00
39443;BME280;25147;52.142;9.960;2023-04-10T03:36:52;101404.06;;;2.87;100.00
39443;BME280;25147;52.142;9.960;2023-04-10T03:39:22;101368.84;;;2.90;100.00
39443;BME280;25147;52.142;9.960;2023-04-10T03:41:49;101035.72;;;0.97;100.00
39443;BME280;25147;52.142;9.960;2023-04-10T03:44:16;101382.56;;;2.88;100.00
39443;BME280;25147;52.142;9.960;2023-04-10T03:46:44;101208.00;;;1.87;100.00
39443;BME280;25147;52.142;9.960;2023-04-10T03:49:12;101020.28;;;0.71;100.00
39443;BME280;25147;52.142;9.960;2023-04-10T03:51:42;101044.22;;;0.94;100.00
39443;BME280;25147;52.142;9.960;2023-04-10T03:54:10;100865.63;;;-0.09;100.00
39443;BME280;25147;52.142;9.960;2023-04-10T03:56:38;101047.63;;;0.93;100.00
39443;BME280;25147;52.142;9.960;2023-04-10T03:59:05;101191.59;;;1.85;100.00
39443;BME280;25147;52.142;9.960;2023-04-10T04:01:32;100968.28;;;0.57;100.00
39443;BME280;25147;52.142;9.960;2023-04-10T04:03:59;100836.13;;;-0.18;100.00
39443;BME280;25147;52.142;9.960;2023-04-10T04:06:26;101019.03;;;0.86;100.00
39443;BME280;25147;52.142;9.960;2023-04-10T04:08:53;101333.06;;;2.75;100.00
39443;BME280;25147;52.142;9.960;2023-04-10T04:11:20;100758.94;;;-0.70;100.00
39443;BME280;25147;52.142;9.960;2023-04-10T04:13:50;101226.25;;;2.19;100.00
39443;BME280;25147;52.142;9.960;2023-04-10T04:16:18;100916.41;;;0.21;100.00
39443;BME280;25147;52.142;9.960;2023-04-10T04:18:45;100832.69;;;-0.19;100.00
39443;BME280;25147;52.142;9.960;2023-04-10T04:21:12;100808.47;;;-0.26;100.00
39443;BME280;25147;52.142;9.960;2023-04-10T04:23:40;100866.72;;;-0.02;100.00
39443;BME280;25147;52.142;9.960;2023-04-10T04:26:07;100957.72;;;0.77;100.00
39443;BME280;25147;52.142;9.960;2023-04-10T04:28:35;100844.78;;;0.09;100.00
39443;BME280;25147;52.142;9.960;2023-04-10T04:31:05;100819.47;;;-0.04;100.00
39443;BME280;25147;52.142;9.960;2023-04-10T04:33:32;100818.78;;;0.00;100.00
39443;BME280;25147;52.142;9.960;2023-04-10T04:35:59;100847.94;;;0.01;100.00
39443;BME280;25147;52.142;9.960;2023-04-10T04:38:28;101381.69;;;3.16;100.00
39443;BME280;25147;52.142;9.960;2023-04-10T04:40:56;101392.13;;;3.19;100.00
39443;BME280;25147;52.142;9.960;2023-04-10T04:43:23;100869.63;;;0.34;100.00
39443;BME280;25147;52.142;9.960;2023-04-10T04:45:50;101181.03;;;2.05;100.00
39443;BME280;25147;52.142;9.960;2023-04-10T04:48:19;101357.97;;;3.31;100.00
39443;BME280;25147;52.142;9.960;2023-04-10T04:50:46;100849.28;;;0.42;100.00
39443;BME280;25147;52.142;9.960;2023-04-10T04:53:14;100844.06;;;0.39;100.00
39443;BME280;25147;52.142;9.960;2023-04-10T04:55:42;101369.69;;;3.50;100.00
39443;BME280;25147;52.142;9.960;2023-04-10T04:58:10;100887.69;;;0.62;100.00
39443;BME280;25147;52.142;9.960;2023-04-10T05:00:37;101359.56;;;3.57;100.00
39443;BME280;25147;52.142;9.960;2023-04-10T05:03:04;101395.13;;;3.63;100.00
39443;BME280;25147;52.142;9.960;2023-04-10T05:05:33;100973.06;;;1.28;100.00
39443;BME280;25147;52.142;9.960;2023-04-10T05:08:01;101122.66;;;2.10;100.00
39443;BME280;25147;52.142;9.960;2023-04-10T05:10:28;101351.47;;;3.77;100.00
39443;BME280;25147;52.142;9.960;2023-04-10T05:12:55;101110.34;;;2.31;100.00
39443;BME280;25147;52.142;9.960;2023-04-10T05:15:23;100853.84;;;0.78;100.00
39443;BME280;25147;52.142;9.960;2023-04-10T05:17:50;101044.94;;;2.02;100.00
39443;BME280;25147;52.142;9.960;2023-04-10T05:20:18;101387.41;;;3.98;100.00
39443;BME280;25147;52.142;9.960;2023-04-10T05:22:49;100864.38;;;1.14;100.00
39443;BME280;25147;52.142;9.960;2023-04-10T05:25:17;100998.72;;;1.81;100.00
39443;BME280;25147;52.142;9.960;2023-04-10T05:27:45;101109.41;;;2.59;100.00
39443;BME280;25147;52.142;9.960;2023-04-10T05:30:12;101372.59;;;4.27;100.00
39443;BME280;25147;52.142;9.960;2023-04-10T05:32:40;101180.97;;;3.24;100.00
39443;BME280;25147;52.142;9.960;2023-04-10T05:35:08;101185.25;;;3.24;100.00
39443;BME280;25147;52.142;9.960;2023-04-10T05:37:35;101384.34;;;4.48;100.00
39443;BME280;25147;52.142;9.960;2023-04-10T05:40:05;101321.88;;;4.37;99.84
39443;BME280;25147;52.142;9.960;2023-04-10T05:42:38;100786.66;;;1.32;98.88
39443;BME280;25147;52.142;9.960;2023-04-10T05:45:10;101269.25;;;4.05;98.83
39443;BME280;25147;52.142;9.960;2023-04-10T05:47:40;101038.81;;;2.95;97.80
39443;BME280;25147;52.142;9.960;2023-04-10T05:50:08;101056.19;;;3.01;97.29
39443;BME280;25147;52.142;9.960;2023-04-10T05:52:36;101357.97;;;5.03;97.08
39443;BME280;25147;52.142;9.960;2023-04-10T05:55:13;101345.16;;;5.13;96.60
39443;BME280;25147;52.142;9.960;2023-04-10T05:57:48;101374.78;;;5.22;95.94
39443;BME280;25147;52.142;9.960;2023-04-10T06:00:17;101024.75;;;3.20;95.04
39443;BME280;25147;52.142;9.960;2023-04-10T06:02:46;101357.91;;;5.43;94.36
39443;BME280;25147;52.142;9.960;2023-04-10T06:05:17;101404.97;;;5.58;93.32
39443;BME280;25147;52.142;9.960;2023-04-10T06:07:45;101064.38;;;3.94;92.36
39443;BME280;25147;52.142;9.960;2023-04-10T06:10:17;101375.13;;;5.83;91.40
39443;BME280;25147;52.142;9.960;2023-04-10T06:12:45;101141.13;;;4.30;90.50
39443;BME280;25147;52.142;9.960;2023-04-10T06:15:19;100940.00;;;3.50;89.86
39443;BME280;25147;52.142;9.960;2023-04-10T06:17:47;100871.13;;;3.14;89.32
39443;BME280;25147;52.142;9.960;2023-04-10T06:20:15;100896.34;;;3.26;88.67
39443;BME280;25147;52.142;9.960;2023-04-10T06:22:43;101162.47;;;5.05;88.27
39443;BME280;25147;52.142;9.960;2023-04-10T06:25:11;100907.50;;;3.63;88.11
39443;BME280;25147;52.142;9.960;2023-04-10T06:27:44;101358.00;;;6.43;87.89
39443;BME280;25147;52.142;9.960;2023-04-10T06:30:15;100898.94;;;3.67;87.13
39443;BME280;25147;52.142;9.960;2023-04-10T06:32:43;101351.28;;;6.56;86.93
39443;BME280;25147;52.142;9.960;2023-04-10T06:35:13;101198.09;;;5.63;86.39
39443;BME280;25147;52.142;9.960;2023-04-10T06:37:41;101186.88;;;5.65;85.81
39443;BME280;25147;52.142;9.960;2023-04-10T06:40:10;100908.38;;;4.10;85.22
39443;BME280;25147;52.142;9.960;2023-04-10T06:42:37;100866.88;;;4.09;84.67
39443;BME280;25147;52.142;9.960;2023-04-10T06:45:06;101163.94;;;5.92;84.46
39443;BME280;25147;52.142;9.960;2023-04-10T06:47:34;100965.59;;;4.71;83.83
39443;BME280;25147;52.142;9.960;2023-04-10T06:50:02;100832.38;;;4.10;83.26
39443;BME280;25147;52.142;9.960;2023-04-10T06:52:29;100970.25;;;4.92;83.06
39443;BME280;25147;52.142;9.960;2023-04-10T06:54:56;101333.06;;;7.22;82.81
39443;BME280;25147;52.142;9.960;2023-04-10T06:57:24;101332.25;;;7.26;82.30
39443;BME280;25147;52.142;9.960;2023-04-10T06:59:52;100899.84;;;4.68;81.80
39443;BME280;25147;52.142;9.960;2023-04-10T07:02:21;100845.06;;;4.48;81.78
39443;BME280;25147;52.142;9.960;2023-04-10T07:04:48;101336.78;;;7.41;81.91
39443;BME280;25147;52.142;9.960;2023-04-10T07:07:24;100861.88;;;4.73;81.85
39443;BME280;25147;52.142;9.960;2023-04-10T07:09:51;100857.63;;;4.76;81.68
39443;BME280;25147;52.142;9.960;2023-04-10T07:12:18;101340.47;;;7.63;81.59
39443;BME280;25147;52.142;9.960;2023-04-10T07:14:48;100876.09;;;4.99;80.72
39443;BME280;25147;52.142;9.960;2023-04-10T07:17:15;101058.44;;;6.05;80.34
39443;BME280;25147;52.142;9.960;2023-04-10T07:19:48;101282.28;;;7.59;79.60
39443;BME280;25147;52.142;9.960;2023-04-10T07:22:16;100901.19;;;5.69;78.19
39443;BME280;25147;52.142;9.960;2023-04-10T07:24:50;100795.88;;;5.18;77.29
39443;BME280;25147;52.142;9.960;2023-04-10T07:27:21;101331.59;;;8.33;76.80
39443;BME280;25147;52.142;9.960;2023-04-10T07:29:54;100869.22;;;5.73;75.59
39443;BME280;25147;52.142;9.960;2023-04-10T07:32:22;101316.13;;;8.56;75.49
39443;BME280;25147;52.142;9.960;2023-04-10T07:34:54;101304.84;;;8.64;75.18
39443;BME280;25147;52.142;9.960;2023-04-10T07:37:36;101281.38;;;8.63;74.48
39443;BME280;25147;52.142;9.960;2023-04-10T07:40:05;100881.78;;;6.13;73.77
39443;BME280;25147;52.142;9.960;2023-04-10T07:42:39;100874.88;;;6.18;73.21
39443;BME280;25147;52.142;9.960;2023-04-10T07:45:14;100798.19;;;5.71;72.00
39443;BME280;25147;52.142;9.960;2023-04-10T07:47:43;100842.00;;;6.21;72.06
39443;BME280;25147;52.142;9.960;2023-04-10T07:50:12;101288.53;;;9.07;71.94
39443;BME280;25147;52.142;9.960;2023-04-10T07:52:42;101127.06;;;8.00;71.23
39443;BME280;25147;52.142;9.960;2023-04-10T07:55:11;100844.91;;;6.61;71.28
39443;BME280;25147;52.142;9.960;2023-04-10T07:57:40;100992.16;;;7.57;70.79
39443;BME280;25147;52.142;9.960;2023-04-10T08:00:13;101287.75;;;9.36;70.79
39443;BME280;25147;52.142;9.960;2023-04-10T08:02:43;100798.81;;;6.42;70.21
39443;BME280;25147;52.142;9.960;2023-04-10T08:05:20;100851.06;;;6.79;69.87
39443;BME280;25147;52.142;9.960;2023-04-10T08:07:50;100855.47;;;6.86;69.89
39443;BME280;25147;52.142;9.960;2023-04-10T08:10:20;100842.41;;;6.81;69.26
39443;BME280;25147;52.142;9.960;2023-04-10T08:12:53;100825.06;;;6.80;69.35
39443;BME280;25147;52.142;9.960;2023-04-10T08:15:21;101277.34;;;9.57;68.94
39443;BME280;25147;52.142;9.960;2023-04-10T08:17:49;101300.88;;;9.60;68.66
39443;BME280;25147;52.142;9.960;2023-04-10T08:20:16;101271.28;;;9.63;68.53
39443;BME280;25147;52.142;9.960;2023-04-10T08:22:45;101149.22;;;9.00;68.11
39443;BME280;25147;52.142;9.960;2023-04-10T08:25:12;100862.63;;;7.32;68.18
39443;BME280;25147;52.142;9.960;2023-04-10T08:27:39;101021.06;;;8.08;68.17
39443;BME280;25147;52.142;9.960;2023-04-10T08:30:13;101307.88;;;9.80;68.16
39443;BME280;25147;52.142;9.960;2023-04-10T08:32:40;100874.88;;;7.59;68.30
39443;BME280;25147;52.142;9.960;2023-04-10T08:35:08;101117.88;;;9.11;68.49
39443;BME280;25147;52.142;9.960;2023-04-10T08:37:35;101247.75;;;9.95;68.15
39443;BME280;25147;52.142;9.960;2023-04-10T08:40:05;101247.72;;;10.17;68.07
39443;BME280;25147;52.142;9.960;2023-04-10T08:42:32;101043.00;;;8.95;67.61
39443;BME280;25147;52.142;9.960;2023-04-10T08:45:03;101094.38;;;9.25;67.06
39443;BME280;25147;52.142;9.960;2023-04-10T08:47:35;101172.78;;;9.90;66.72
39443;BME280;25147;52.142;9.960;2023-04-10T08:50:05;101069.13;;;9.29;66.69
39443;BME280;25147;52.142;9.960;2023-04-10T08:52:37;101038.63;;;9.41;66.08
39443;BME280;25147;52.142;9.960;2023-04-10T08:55:11;100799.41;;;8.08;64.82
39443;BME280;25147;52.142;9.960;2023-04-10T08:57:39;101074.25;;;9.89;64.37
39443;BME280;25147;52.142;9.960;2023-04-10T09:00:08;100722.03;;;7.89;63.71
39443;BME280;25147;52.142;9.960;2023-04-10T09:02:40;101272.88;;;10.92;63.38
39443;BME280;25147;52.142;9.960;2023-04-10T09:05:10;101126.44;;;10.42;62.64
39443;BME280;25147;52.142;9.960;2023-04-10T09:07:38;100754.16;;;8.32;62.68
39443;BME280;25147;52.142;9.960;2023-04-10T09:10:06;101073.28;;;10.20;62.56
39443;BME280;25147;52.142;9.960;2023-04-10T09:12:45;101067.16;;;10.21;62.37
39443;BME280;25147;52.142;9.960;2023-04-10T09:15:17;100783.72;;;8.47;61.62
39443;BME280;25147;52.142;9.960;2023-04-10T09:17:56;100780.25;;;8.51;61.46
39443;BME280;25147;52.142;9.960;2023-04-10T09:20:25;100756.78;;;8.48;61.13
39443;BME280;25147;52.142;9.960;2023-04-10T09:22:59;100784.56;;;8.64;61.34
39443;BME280;25147;52.142;9.960;2023-04-10T09:25:32;100932.34;;;9.47;61.39
39443;BME280;25147;52.142;9.960;2023-04-10T09:28:06;100764.56;;;8.58;61.30
39443;BME280;25147;52.142;9.960;2023-04-10T09:30:35;100947.06;;;9.66;61.19
39443;BME280;25147;52.142;9.960;2023-04-10T09:33:02;100758.44;;;8.78;60.42
39443;BME280;25147;52.142;9.960;2023-04-10T09:35:39;101128.72;;;11.04;60.30
39443;BME280;25147;52.142;9.960;2023-04-10T09:38:18;100907.81;;;9.75;59.36
39443;BME280;25147;52.142;9.960;2023-04-10T09:40:50;100809.59;;;9.33;59.73
39443;BME280;25147;52.142;9.960;2023-04-10T09:43:22;100697.53;;;8.76;59.29
39443;BME280;25147;52.142;9.960;2023-04-10T09:46:04;100744.38;;;9.14;59.10
39443;BME280;25147;52.142;9.960;2023-04-10T09:48:40;101155.28;;;11.71;59.08
39443;BME280;25147;52.142;9.960;2023-04-10T09:51:34;100797.16;;;9.73;59.33
39443;BME280;25147;52.142;9.960;2023-04-10T09:54:04;101142.09;;;11.78;58.84
39443;BME280;25147;52.142;9.960;2023-04-10T09:56:38;100712.13;;;9.20;59.03
39443;BME280;25147;52.142;9.960;2023-04-10T09:59:12;100705.03;;;9.39;58.54
39443;BME280;25147;52.142;9.960;2023-04-10T10:01:40;100719.81;;;9.44;58.48
39443;BME280;25147;52.142;9.960;2023-04-10T10:04:09;100684.22;;;9.27;58.21
39443;BME280;25147;52.142;9.960;2023-04-10T10:06:41;100933.19;;;10.92;57.53
39443;BME280;25147;52.142;9.960;2023-04-10T10:09:09;101033.91;;;11.55;57.03
39443;BME280;25147;52.142;9.960;2023-04-10T10:11:41;100772.63;;;9.90;56.90
39443;BME280;25147;52.142;9.960;2023-04-10T10:14:24;100978.06;;;11.47;56.12
39443;BME280;25147;52.142;9.960;2023-04-10T10:16:58;101112.84;;;12.18;56.36
39443;BME280;25147;52.142;9.960;2023-04-10T10:19:41;100810.34;;;10.66;55.24
39443;BME280;25147;52.142;9.960;2023-04-10T10:22:12;100649.03;;;9.69;54.98
39443;BME280;25147;52.142;9.960;2023-04-10T10:24:44;101085.50;;;12.33;54.59
39443;BME280;25147;52.142;9.960;2023-04-10T10:27:13;100805.00;;;10.77;53.80
39443;BME280;25147;52.142;9.960;2023-04-10T10:29:48;100972.56;;;11.70;53.45
39443;BME280;25147;52.142;9.960;2023-04-10T10:32:19;100939.47;;;11.58;53.44
39443;BME280;25147;52.142;9.960;2023-04-10T10:34:47;100955.97;;;11.66;53.92
39443;BME280;25147;52.142;9.960;2023-04-10T10:37:17;100906.28;;;11.57;53.90
39443;BME280;25147;52.142;9.960;2023-04-10T10:39:50;101050.31;;;12.50;53.81
39443;BME280;25147;52.142;9.960;2023-04-10T10:42:22;101078.28;;;12.54;53.14
39443;BME280;25147;52.142;9.960;2023-04-10T10:44:59;101047.53;;;12.59;53.21
39443;BME280;25147;52.142;9.960;2023-04-10T10:47:39;100619.81;;;10.14;52.40
39443;BME280;25147;52.142;9.960;2023-04-10T10:50:06;100622.44;;;10.12;52.67
39443;BME280;25147;52.142;9.960;2023-04-10T10:52:42;101042.03;;;12.76;52.11
39443;BME280;25147;52.142;9.960;2023-04-10T10:55:32;101026.06;;;12.90;51.96
39443;BME280;25147;52.142;9.960;2023-04-10T10:58:08;100598.56;;;10.43;51.64
39443;BME280;25147;52.142;9.960;2023-04-10T11:01:14;101015.31;;;13.05;51.54
39443;BME280;25147;52.142;9.960;2023-04-10T11:03:42;100877.41;;;12.22;50.89
39443;BME280;25147;52.142;9.960;2023-04-10T11:06:11;100850.41;;;12.15;50.73
39443;BME280;25147;52.142;9.960;2023-04-10T11:08:41;100619.69;;;10.94;49.91
39443;BME280;25147;52.142;9.960;2023-04-10T11:11:11;100583.38;;;10.68;49.33
39443;BME280;25147;52.142;9.960;2023-04-10T11:14:11;100725.06;;;11.75;48.86
39443;BME280;25147;52.142;9.960;2023-04-10T11:16:47;100990.19;;;13.38;48.96
39443;BME280;25147;52.142;9.960;2023-04-10T11:19:14;100869.56;;;12.73;48.54
39443;BME280;25147;52.142;9.960;2023-04-10T11:22:05;100972.25;;;13.60;48.62
39443;BME280;25147;52.142;9.960;2023-04-10T11:24:56;100962.44;;;13.67;48.57
39443;BME280;25147;52.142;9.960;2023-04-10T11:27:44;100964.00;;;13.77;48.58
39443;BME280;25147;52.142;9.960;2023-04-10T11:30:33;100953.44;;;13.79;48.45
39443;BME280;25147;52.142;9.960;2023-04-10T11:33:06;100956.91;;;13.81;48.28
39443;BME280;25147;52.142;9.960;2023-04-10T11:35:33;100695.50;;;12.17;48.49
39443;BME280;25147;52.142;9.960;2023-04-10T11:38:16;100937.59;;;13.82;48.59
39443;BME280;25147;52.142;9.960;2023-04-10T11:40:58;100945.38;;;13.87;48.42
39443;BME280;25147;52.142;9.960;2023-04-10T11:43:26;100920.66;;;13.94;48.36
39443;BME280;25147;52.142;9.960;2023-04-10T11:46:04;100663.44;;;12.46;47.89
39443;BME280;25147;52.142;9.960;2023-04-10T11:48:33;100740.22;;;13.02;47.68
39443;BME280;25147;52.142;9.960;2023-04-10T11:51:12;100804.03;;;13.53;47.53
39443;BME280;25147;52.142;9.960;2023-04-10T11:53:40;100586.72;;;12.32;46.95
39443;BME280;25147;52.142;9.960;2023-04-10T11:56:15;100922.72;;;14.18;46.82
39443;BME280;25147;52.142;9.960;2023-04-10T11:58:43;100747.53;;;13.32;46.83
39443;BME280;25147;52.142;9.960;2023-04-10T12:01:10;100684.28;;;12.97;46.81
39443;BME280;25147;52.142;9.960;2023-04-10T12:03:42;100868.91;;;14.30;47.27
39443;BME280;25147;52.142;9.960;2023-04-10T12:06:11;100428.66;;;11.75;46.58
39443;BME280;25147;52.142;9.960;2023-04-10T12:08:40;100867.56;;;14.50;45.71
39443;BME280;25147;52.142;9.960;2023-04-10T12:11:08;100862.00;;;14.62;45.20
39443;BME280;25147;52.142;9.960;2023-04-10T12:13:35;100676.13;;;13.47;44.67
39443;BME280;25147;52.142;9.960;2023-04-10T12:16:04;100860.66;;;14.80;44.87
39443;BME280;25147;52.142;9.960;2023-04-10T12:18:32;100709.91;;;14.00;44.74
39443;BME280;25147;52.142;9.960;2023-04-10T12:21:03;100706.91;;;14.15;45.01
39443;BME280;25147;52.142;9.960;2023-04-10T12:23:30;100705.31;;;14.08;45.08
39443;BME280;25147;52.142;9.960;2023-04-10T12:26:16;100656.59;;;13.92;44.50
39443;BME280;25147;52.142;9.960;2023-04-10T12:28:50;100749.78;;;14.53;43.41
39443;BME280;25147;52.142;9.960;2023-04-10T12:31:17;100565.47;;;13.55;42.64
39443;BME280;25147;52.142;9.960;2023-04-10T12:33:44;100725.28;;;14.50;43.32
39443;BME280;25147;52.142;9.960;2023-04-10T12:36:23;100684.38;;;14.36;43.46
39443;BME280;25147;52.142;9.960;2023-04-10T12:38:51;100628.78;;;13.83;43.71
39443;BME280;25147;52.142;9.960;2023-04-10T12:41:25;100674.94;;;14.29;43.92
39443;BME280;25147;52.142;9.960;2023-04-10T12:44:06;100824.34;;;15.22;44.07
39443;BME280;25147;52.142;9.960;2023-04-10T12:46:34;100398.59;;;12.67;44.27
39443;BME280;25147;52.142;9.960;2023-04-10T12:49:09;100800.66;;;15.19;44.35
39443;BME280;25147;52.142;9.960;2023-04-10T12:51:45;100568.94;;;13.90;44.43
39443;BME280;25147;52.142;9.960;2023-04-10T12:54:30;100805.38;;;15.39;44.28
39443;BME280;25147;52.142;9.960;2023-04-10T12:56:57;100810.41;;;15.47;44.34
39443;BME280;25147;52.142;9.960;2023-04-10T12:59:25;100801.34;;;15.56;44.49
39443;BME280;25147;52.142;9.960;2023-04-10T13:01:52;100829.25;;;15.63;44.15
39443;BME280;25147;52.142;9.960;2023-04-10T13:04:19;100324.41;;;12.91;44.24
39443;BME280;25147;52.142;9.960;2023-04-10T13:06:48;100820.94;;;15.77;44.29
39443;BME280;25147;52.142;9.960;2023-04-10T13:09:17;100609.56;;;14.73;44.55
39443;BME280;25147;52.142;9.960;2023-04-10T13:11:44;100799.63;;;15.83;44.32